Time;durP1;ratioP1;P1;durP2;ratioP2;P2;SDS_P1;SDS_P2;PMS_P1;PMS_P2;Temp;Humidity;BMP_temperature;BMP_pressure;BME280_temperature;BME280_humidity;BME280_pressure;Samples;Min_cycle;Max_cycle;Signal;HPM_P1;HPM_P2
2021/12/23 00:00:13;;;;;;;20.98;10.90;;;22.10;99.90;;;;;;5008937;28;20154;-65
2021/12/23 00:02:40;;;;;;;12.88;9.55;;;22.00;99.90;;;;;;5009005;28;20057;-67
2021/12/23 00:05:09;;;;;;;15.15;9.57;;;22.10;99.90;;;;;;5008784;28;20037;-67
2021/12/23 00:07:36;;;;;;;13.77;9.68;;;22.20;99.90;;;;;;5010482;28;20545;-66
2021/12/23 00:10:06;;;;;;;12.18;8.60;;;22.30;99.90;;;;;;5009309;28;20049;-67
2021/12/23 00:12:36;;;;;;;12.63;9.70;;;22.50;99.90;;;;;;5024880;28;20029;-64
2021/12/23 00:15:08;;;;;;;12.02;9.48;;;22.60;99.90;;;;;;5018382;28;20577;-67
2021/12/23 00:25:35;;;;;;;10.98;8.85;;;23.10;99.90;;;;;;5021836;28;20427;-67
2021/12/23 00:28:03;;;;;;;10.52;8.73;;;23.30;99.90;;;;;;5049821;27;20118;-64
2021/12/23 00:30:30;;;;;;;12.77;8.90;;;23.50;99.90;;;;;;5054328;27;20029;-65
2021/12/23 00:32:57;;;;;;;11.85;7.72;;;23.70;99.90;;;;;;5027642;27;20049;-65
2021/12/23 00:35:25;;;;;;;10.05;8.02;;;23.90;99.90;;;;;;5027387;28;20021;-66
2021/12/23 00:37:59;;;;;;;11.27;7.07;;;24.30;99.90;;;;;;5024625;28;20017;-66
2021/12/23 00:40:26;;;;;;;10.68;6.35;;;24.60;99.90;;;;;;5016366;27;20095;-66
2021/12/23 00:42:53;;;;;;;8.70;6.85;;;24.70;99.90;;;;;;5012687;28;20057;-67
2021/12/23 00:45:21;;;;;;;9.25;6.68;;;25.00;99.90;;;;;;5013078;28;20064;-67
2021/12/23 00:47:49;;;;;;;8.02;5.82;;;25.30;99.90;;;;;;5013957;28;20144;-68
2021/12/23 00:50:16;;;;;;;12.50;8.48;;;25.80;99.90;;;;;;5017135;27;20022;-68
2021/12/23 00:52:43;;;;;;;8.75;6.90;;;26.20;99.90;;;;;;5015646;27;20115;-68
2021/12/23 00:55:11;;;;;;;10.38;6.18;;;26.50;99.90;;;;;;5015743;28;20041;-68
2021/12/23 00:57:40;;;;;;;7.80;6.38;;;26.60;99.90;;;;;;5013972;28;20060;-68
2021/12/23 01:00:11;;;;;;;9.95;7.13;;;26.70;99.90;;;;;;5020561;27;20041;-70
2021/12/23 01:02:43;;;;;;;7.45;6.18;;;26.70;99.90;;;;;;5021555;27;20061;-68
2021/12/23 01:05:13;;;;;;;8.68;6.32;;;26.70;99.90;;;;;;5016695;27;20456;-69
2021/12/23 01:07:40;;;;;;;7.32;5.97;;;26.70;99.90;;;;;;5015547;28;20710;-67
2021/12/23 01:10:08;;;;;;;10.63;6.70;;;26.60;99.90;;;;;;5018159;27;20026;-69
2021/12/23 01:12:44;;;;;;;10.23;5.93;;;26.30;99.90;;;;;;5014286;28;20109;-68
2021/12/23 01:15:58;;;;;;;7.47;5.93;;;26.40;99.90;;;;;;5017518;27;20035;-68
2021/12/23 01:18:12;;;;;;;11.10;6.78;;;26.50;99.90;;;;;;5016733;27;20810;-68
2021/12/23 01:20:51;;;;;;;10.00;6.97;;;26.50;99.90;;;;;;5014943;27;20154;-69
2021/12/23 01:23:21;;;;;;;7.18;6.05;;;26.70;99.90;;;;;;5014630;28;20034;-70
2021/12/23 01:25:49;;;;;;;6.95;6.15;;;27.00;99.90;;;;;;5014788;27;20208;-67
2021/12/23 01:28:16;;;;;;;7.13;5.95;;;27.50;99.90;;;;;;5012198;27;20033;-70
2021/12/23 01:30:43;;;;;;;8.52;6.15;;;28.00;99.90;;;;;;5015090;28;20025;-67
2021/12/23 01:33:11;;;;;;;8.48;6.13;;;28.10;99.90;;;;;;5013688;28;20482;-69
2021/12/23 01:35:39;;;;;;;7.40;6.07;;;28.70;99.90;;;;;;5014208;28;20025;-69
2021/12/23 01:38:07;;;;;;;7.05;6.18;;;29.00;99.90;;;;;;5014578;28;20029;-69
2021/12/23 01:40:35;;;;;;;8.32;6.78;;;29.40;99.90;;;;;;5013857;28;20040;-70
2021/12/23 01:43:03;;;;;;;9.88;8.88;;;29.60;99.90;;;;;;5017993;27;20584;-68
2021/12/23 01:45:32;;;;;;;8.48;6.47;;;29.50;99.90;;;;;;5015239;28;20053;-68
2021/12/23 01:48:01;;;;;;;7.55;6.75;;;29.50;99.90;;;;;;5016060;27;20049;-65
2021/12/23 01:50:29;;;;;;;9.10;7.13;;;29.90;99.90;;;;;;5016343;27;20846;-68
2021/12/23 01:52:59;;;;;;;10.52;8.52;;;30.40;99.90;;;;;;5016993;27;20476;-67
2021/12/23 01:55:27;;;;;;;8.57;7.40;;;30.90;99.90;;;;;;5014504;28;20083;-67
2021/12/23 01:57:54;;;;;;;9.40;8.40;;;30.90;99.90;;;;;;5010452;28;20030;-68
2021/12/23 02:00:25;;;;;;;10.15;7.50;;;30.60;99.90;;;;;;5013008;28;20698;-71
2021/12/23 02:02:54;;;;;;;10.52;8.70;;;30.50;99.90;;;;;;5012692;28;20385;-69
2021/12/23 02:05:22;;;;;;;11.25;8.00;;;30.20;99.90;;;;;;5011535;28;20033;-70
2021/12/23 02:07:49;;;;;;;8.35;7.50;;;29.70;99.90;;;;;;5011139;28;20421;-68
2021/12/23 02:10:16;;;;;;;9.13;7.65;;;29.70;99.90;;;;;;5012226;28;20018;-70
2021/12/23 02:12:46;;;;;;;8.82;7.88;;;29.50;99.90;;;;;;5012685;28;20685;-69
2021/12/23 02:15:15;;;;;;;10.00;7.60;;;29.30;99.90;;;;;;5012854;28;20442;-68
2021/12/23 02:17:43;;;;;;;9.13;7.88;;;29.20;99.90;;;;;;5012844;27;20096;-68
2021/12/23 02:20:16;;;;;;;10.05;8.57;;;28.80;99.90;;;;;;5010537;28;20068;-72
2021/12/23 02:22:44;;;;;;;9.10;8.00;;;28.70;99.90;;;;;;5011819;28;20416;-70
2021/12/23 02:25:12;;;;;;;9.63;8.25;;;28.70;99.90;;;;;;5011299;28;20413;-68
2021/12/23 02:27:40;;;;;;;10.98;7.95;;;28.70;99.90;;;;;;5011575;28;20117;-69
2021/12/23 02:30:11;;;;;;;8.48;7.68;;;29.20;99.90;;;;;;5011975;28;20448;-71
2021/12/23 02:32:39;;;;;;;9.57;7.63;;;29.70;99.90;;;;;;5011944;28;20025;-70
2021/12/23 02:35:10;;;;;;;10.35;7.10;;;30.10;99.90;;;;;;5012456;28;20477;-71
2021/12/23 02:37:37;;;;;;;12.52;7.93;;;30.20;99.90;;;;;;5012834;28;20114;-70
2021/12/23 02:40:05;;;;;;;10.23;7.05;;;29.80;99.90;;;;;;5012390;27;20036;-71
2021/12/23 02:42:32;;;;;;;8.75;7.15;;;29.90;99.90;;;;;;5011292;28;20034;-70
2021/12/23 02:45:01;;;;;;;9.32;7.60;;;29.90;99.90;;;;;;5020882;28;20421;-71
2021/12/23 02:47:28;;;;;;;9.10;7.60;;;30.00;99.90;;;;;;5034856;28;20387;-70
2021/12/23 02:49:56;;;;;;;8.00;6.43;;;30.30;99.90;;;;;;5022115;28;20021;-70
2021/12/23 02:52:23;;;;;;;9.45;7.10;;;30.20;99.90;;;;;;5021844;28;20029;-70
2021/12/23 02:54:58;;;;;;;10.85;7.72;;;30.70;99.90;;;;;;5022858;27;20592;-69
2021/12/23 02:57:26;;;;;;;11.07;7.68;;;30.80;99.90;;;;;;5026688;27;20501;-70
2021/12/23 02:59:53;;;;;;;11.35;6.90;;;30.80;99.90;;;;;;5024042;28;20048;-69
2021/12/23 03:02:21;;;;;;;11.95;10.35;;;31.10;99.90;;;;;;5020668;28;20098;-70
2021/12/23 03:04:48;;;;;;;8.23;7.43;;;31.40;99.90;;;;;;5021006;28;20462;-69
2021/12/23 03:07:16;;;;;;;8.30;7.35;;;31.60;99.90;;;;;;5023504;28;20485;-70
2021/12/23 03:09:48;;;;;;;8.15;7.07;;;31.80;99.90;;;;;;5027685;27;20075;-72
2021/12/23 03:12:15;;;;;;;10.88;9.50;;;32.20;99.90;;;;;;5023422;28;20022;-68
2021/12/23 03:14:43;;;;;;;15.32;13.80;;;32.80;99.60;;;;;;5024120;28;20029;-70
2021/12/23 03:17:11;;;;;;;14.02;12.55;;;33.50;98.50;;;;;;5024488;28;20654;-72
2021/12/23 03:19:39;;;;;;;9.13;6.65;;;34.00;97.70;;;;;;5036331;28;20023;-70
2021/12/23 03:22:07;;;;;;;9.27;6.25;;;34.10;95.90;;;;;;5023423;28;20030;-71
2021/12/23 03:24:34;;;;;;;7.45;5.75;;;34.30;95.90;;;;;;5024147;28;20034;-70
2021/12/23 03:27:02;;;;;;;8.13;6.07;;;33.90;96.30;;;;;;5024178;28;20019;-70
2021/12/23 03:29:30;;;;;;;6.60;5.93;;;33.40;96.80;;;;;;5024303;28;20465;-69
2021/12/23 03:31:58;;;;;;;7.75;5.53;;;33.40;97.30;;;;;;5022738;28;20028;-70
2021/12/23 03:34:25;;;;;;;7.30;5.78;;;34.10;95.10;;;;;;5023857;28;20132;-71
2021/12/23 03:36:53;;;;;;;8.85;6.00;;;34.30;93.90;;;;;;5023973;28;20024;-71
2021/12/23 03:39:20;;;;;;;7.05;6.35;;;34.60;93.60;;;;;;5020995;28;20041;-69
2021/12/23 03:41:49;;;;;;;7.07;4.90;;;34.50;94.40;;;;;;5022900;28;20022;-69
2021/12/23 03:44:17;;;;;;;6.93;5.53;;;34.00;94.10;;;;;;5022740;28;20029;-73
2021/12/23 03:46:44;;;;;;;7.72;5.65;;;33.30;93.40;;;;;;5024407;28;20083;-72
2021/12/23 03:49:11;;;;;;;7.53;5.18;;;32.50;95.90;;;;;;5024997;28;20027;-70
2021/12/23 03:51:39;;;;;;;7.43;5.85;;;32.40;96.60;;;;;;5018949;28;20090;-65
2021/12/23 03:54:07;;;;;;;7.47;5.18;;;32.50;94.90;;;;;;5017750;28;20493;-70
2021/12/23 03:56:36;;;;;;;6.28;5.22;;;32.80;95.30;;;;;;5016562;28;20026;-69
2021/12/23 03:59:04;;;;;;;7.28;5.45;;;32.60;95.80;;;;;;5018044;28;20390;-68
2021/12/23 04:01:32;;;;;;;10.00;5.10;;;32.30;96.90;;;;;;5015670;28;20076;-67
2021/12/23 04:03:59;;;;;;;6.70;4.97;;;32.40;96.10;;;;;;5015484;28;20026;-70
2021/12/23 04:06:26;;;;;;;7.40;5.55;;;32.20;96.70;;;;;;5017880;28;20418;-69
2021/12/23 04:08:55;;;;;;;10.20;5.88;;;32.10;96.20;;;;;;5018378;27;20061;-68
2021/12/23 04:11:22;;;;;;;7.78;5.45;;;31.60;96.60;;;;;;5016525;28;20041;-70
2021/12/23 04:13:52;;;;;;;9.75;7.20;;;31.20;97.50;;;;;;5015225;28;20037;-69
2021/12/23 04:16:20;;;;;;;5.30;4.80;;;30.80;98.20;;;;;;5015154;28;20075;-68
2021/12/23 04:18:50;;;;;;;10.52;5.57;;;30.60;98.10;;;;;;5017404;28;20068;-70
2021/12/23 04:21:18;;;;;;;8.52;6.10;;;30.40;99.30;;;;;;5014993;28;20052;-69
2021/12/23 04:23:45;;;;;;;9.60;6.20;;;30.10;99.90;;;;;;5016427;28;20064;-69
2021/12/23 04:26:13;;;;;;;13.00;6.20;;;29.90;99.90;;;;;;5016644;28;20033;-70
2021/12/23 04:28:47;;;;;;;10.48;6.03;;;29.80;99.90;;;;;;5014212;28;20037;-71
2021/12/23 04:31:21;;;;;;;11.05;6.03;;;29.50;99.90;;;;;;5014608;28;20112;-70
2021/12/23 04:33:51;;;;;;;7.38;5.63;;;29.30;99.90;;;;;;5018104;28;20109;-70
2021/12/23 04:36:19;;;;;;;7.70;6.10;;;29.20;99.90;;;;;;5016214;28;20103;-70
2021/12/23 04:38:47;;;;;;;10.18;6.05;;;29.10;99.90;;;;;;5018378;28;20036;-69
2021/12/23 04:41:15;;;;;;;9.70;5.78;;;28.90;99.90;;;;;;5013858;28;20018;-69
2021/12/23 04:43:42;;;;;;;10.57;6.07;;;28.80;99.90;;;;;;5004568;28;20055;-70
2021/12/23 04:46:10;;;;;;;9.75;6.50;;;28.60;99.90;;;;;;4996127;28;20046;-70
2021/12/23 04:48:38;;;;;;;10.18;6.28;;;28.50;99.90;;;;;;4997463;28;20105;-69
2021/12/23 04:51:05;;;;;;;10.68;6.32;;;28.40;99.90;;;;;;4999404;28;20484;-69
2021/12/23 04:53:32;;;;;;;8.90;7.38;;;28.30;99.90;;;;;;4997089;28;20027;-71
2021/12/23 04:56:00;;;;;;;7.28;6.55;;;28.20;99.90;;;;;;4999737;28;20396;-71
2021/12/23 04:58:26;;;;;;;7.95;6.10;;;28.10;99.90;;;;;;4996917;28;20490;-70
2021/12/23 05:00:53;;;;;;;9.50;5.68;;;28.10;99.90;;;;;;4994340;28;20026;-69
2021/12/23 05:03:23;;;;;;;6.80;5.68;;;28.00;99.90;;;;;;4647570;28;9999660;-70
2021/12/23 05:05:50;;;;;;;9.77;5.78;;;27.90;99.90;;;;;;4991703;28;20045;-68
2021/12/23 05:08:19;;;;;;;11.05;6.25;;;27.90;99.90;;;;;;4993289;28;20033;-69
2021/12/23 05:10:46;;;;;;;7.40;5.72;;;27.80;99.90;;;;;;4990336;28;20073;-69
2021/12/23 05:13:13;;;;;;;6.90;5.35;;;27.70;99.90;;;;;;4992847;28;20060;-69
2021/12/23 05:15:41;;;;;;;11.02;6.32;;;27.60;99.90;;;;;;4991616;28;20045;-70
2021/12/23 05:18:08;;;;;;;9.63;6.63;;;27.50;99.90;;;;;;4992926;28;20076;-70
2021/12/23 05:20:35;;;;;;;11.35;6.47;;;27.30;99.90;;;;;;4995275;28;20034;-70
2021/12/23 05:23:02;;;;;;;10.55;6.45;;;27.20;99.90;;;;;;4995632;28;20030;-73
2021/12/23 05:25:29;;;;;;;8.38;6.55;;;27.10;99.90;;;;;;4993794;28;20026;-70
2021/12/23 05:27:58;;;;;;;10.80;6.30;;;27.00;99.90;;;;;;4996172;28;20502;-70
2021/12/23 05:30:25;;;;;;;11.43;6.63;;;26.80;99.90;;;;;;4996513;28;20049;-71
2021/12/23 05:32:53;;;;;;;14.50;7.32;;;26.70;99.90;;;;;;5001317;28;20424;-71
2021/12/23 05:35:21;;;;;;;13.27;6.50;;;26.70;99.90;;;;;;4999957;28;20037;-69
2021/12/23 05:37:48;;;;;;;13.98;7.40;;;26.60;99.90;;;;;;4995693;28;20027;-69
2021/12/23 05:40:18;;;;;;;12.98;6.38;;;26.60;99.90;;;;;;4997391;28;20121;-70
2021/12/23 05:42:46;;;;;;;10.13;6.35;;;26.60;99.90;;;;;;5003817;28;20584;-70
2021/12/23 05:45:14;;;;;;;13.15;6.80;;;26.40;99.90;;;;;;5083178;22;20535;-69
2021/12/23 05:47:42;;;;;;;10.77;5.05;;;26.40;99.90;;;;;;5063448;28;20062;-71
2021/12/23 05:50:10;;;;;;;10.95;5.25;;;26.40;99.90;;;;;;5064568;28;20028;-72
2021/12/23 05:52:37;;;;;;;10.15;5.65;;;26.30;99.90;;;;;;5064573;28;20024;-72
2021/12/23 05:55:07;;;;;;;13.68;6.15;;;26.30;99.90;;;;;;5064431;28;20401;-70
2021/12/23 05:57:35;;;;;;;7.22;4.93;;;26.30;99.90;;;;;;5064484;28;20101;-72
2021/12/23 06:00:06;;;;;;;12.55;5.07;;;26.10;99.90;;;;;;5065557;28;20039;-70
2021/12/23 06:02:33;;;;;;;10.35;5.65;;;26.10;99.90;;;;;;5066537;28;20456;-70
2021/12/23 06:05:00;;;;;;;12.90;6.80;;;26.00;99.90;;;;;;5063443;28;20089;-73
2021/12/23 06:07:28;;;;;;;10.70;5.97;;;26.00;99.90;;;;;;5065102;28;20048;-71
2021/12/23 06:09:55;;;;;;;8.80;5.47;;;25.90;99.90;;;;;;5063658;28;20111;-70
2021/12/23 06:12:22;;;;;;;8.40;5.32;;;25.90;99.90;;;;;;5063624;28;20048;-73
2021/12/23 06:14:49;;;;;;;11.70;5.10;;;25.80;99.90;;;;;;5064518;28;20047;-70
2021/12/23 06:17:16;;;;;;;10.13;5.45;;;25.80;99.90;;;;;;5063929;28;20032;-75
2021/12/23 06:19:43;;;;;;;8.63;5.60;;;25.80;99.90;;;;;;5059051;28;20103;-73
2021/12/23 06:22:10;;;;;;;8.50;6.38;;;25.60;99.90;;;;;;5062006;28;20039;-69
2021/12/23 06:24:37;;;;;;;13.77;10.93;;;25.60;99.90;;;;;;5062877;28;20032;-71
2021/12/23 06:27:04;;;;;;;13.40;9.75;;;25.50;99.90;;;;;;5062789;28;20155;-72
2021/12/23 06:29:31;;;;;;;11.20;6.03;;;25.40;99.90;;;;;;5063320;28;20032;-73
2021/12/23 06:31:58;;;;;;;9.32;6.38;;;25.40;99.90;;;;;;5064783;28;20021;-68
2021/12/23 06:34:25;;;;;;;8.20;5.72;;;25.40;99.90;;;;;;5061045;28;20032;-68
2021/12/23 06:36:52;;;;;;;11.38;5.93;;;25.50;99.90;;;;;;5061552;28;20032;-74
2021/12/23 06:39:19;;;;;;;9.00;6.23;;;25.40;99.90;;;;;;4367916;28;10000591;-70
2021/12/23 06:41:46;;;;;;;10.43;5.53;;;25.40;99.90;;;;;;5060341;28;20823;-72
2021/12/23 06:44:13;;;;;;;9.90;5.60;;;25.30;99.90;;;;;;5067054;28;20103;-75
2021/12/23 06:46:40;;;;;;;10.32;6.30;;;25.30;99.90;;;;;;5104899;28;20027;-70
2021/12/23 06:49:07;;;;;;;10.15;5.57;;;25.30;99.90;;;;;;5102434;28;20383;-71
2021/12/23 06:51:34;;;;;;;10.70;5.68;;;25.30;99.90;;;;;;5104096;28;20156;-70
2021/12/23 06:54:02;;;;;;;14.02;6.13;;;25.40;99.90;;;;;;5107112;28;20106;-71
2021/12/23 06:56:29;;;;;;;7.70;5.10;;;25.50;99.90;;;;;;5106813;28;20080;-71
2021/12/23 06:58:56;;;;;;;11.60;5.63;;;25.50;99.90;;;;;;5106230;28;20121;-71
2021/12/23 07:01:23;;;;;;;11.55;5.55;;;25.50;99.90;;;;;;5108441;28;20020;-74
2021/12/23 07:06:22;;;;;;;7.95;4.70;;;25.60;99.90;;;;;;5103066;28;20023;-71
2021/12/23 07:08:50;;;;;;;8.18;5.20;;;25.60;99.90;;;;;;5085981;28;20035;-70
2021/12/23 07:11:17;;;;;;;10.05;4.70;;;25.70;99.90;;;;;;5105383;28;20459;-72
2021/12/23 07:13:45;;;;;;;9.45;5.47;;;25.70;99.90;;;;;;5104552;28;20080;-72
2021/12/23 07:16:13;;;;;;;8.70;5.13;;;25.70;99.90;;;;;;5086325;28;20051;-74
2021/12/23 07:18:41;;;;;;;9.27;4.88;;;25.80;99.90;;;;;;5104543;28;20031;-70
2021/12/23 07:21:08;;;;;;;6.03;4.60;;;25.80;99.90;;;;;;5103872;28;20032;-74
2021/12/23 07:23:35;;;;;;;9.15;5.07;;;25.80;99.90;;;;;;5102256;28;20504;-72
2021/12/23 07:26:03;;;;;;;11.25;5.65;;;25.80;99.90;;;;;;5103730;28;20116;-72
2021/12/23 07:28:30;;;;;;;9.32;4.75;;;25.90;99.90;;;;;;5104091;28;20115;-71
2021/12/23 07:30:57;;;;;;;8.88;4.53;;;25.90;99.90;;;;;;5104157;28;20149;-75
2021/12/23 07:33:24;;;;;;;8.13;4.47;;;25.90;99.90;;;;;;5096550;28;20387;-70
2021/12/23 07:35:52;;;;;;;8.48;4.68;;;26.10;99.90;;;;;;5079651;28;20028;-72
2021/12/23 07:38:20;;;;;;;10.05;4.07;;;26.10;99.90;;;;;;5093725;28;20035;-71
2021/12/23 07:40:47;;;;;;;7.40;3.78;;;26.20;99.90;;;;;;5092662;28;20498;-72
2021/12/23 07:46:04;;;;;;;6.50;3.70;;;26.30;99.90;;;;;;5092818;28;20101;-72
2021/12/23 07:48:31;;;;;;;8.98;4.13;;;26.40;99.90;;;;;;5094612;28;20519;-72
2021/12/23 07:51:00;;;;;;;10.57;4.80;;;26.40;99.90;;;;;;5080670;28;20475;-72
2021/12/23 07:53:30;;;;;;;7.13;4.28;;;26.30;99.90;;;;;;5094203;28;20150;-73
2021/12/23 07:55:57;;;;;;;10.27;6.10;;;26.30;99.90;;;;;;5094303;28;20022;-73
2021/12/23 07:58:24;;;;;;;8.63;5.18;;;26.30;99.90;;;;;;5093208;28;20027;-69
2021/12/23 08:00:51;;;;;;;9.85;4.07;;;26.30;99.90;;;;;;5094823;28;20028;-72
2021/12/23 08:03:18;;;;;;;8.35;4.13;;;26.10;99.90;;;;;;5079701;28;20043;-71
2021/12/23 08:05:45;;;;;;;7.18;4.30;;;26.00;99.90;;;;;;5080061;28;20032;-70
2021/12/23 08:08:12;;;;;;;6.78;4.50;;;25.90;99.90;;;;;;5094655;28;20070;-72
2021/12/23 08:10:39;;;;;;;9.82;4.68;;;26.00;99.90;;;;;;5079270;28;20481;-72
2021/12/23 08:13:07;;;;;;;10.93;4.60;;;25.90;99.90;;;;;;5092204;28;20074;-70
2021/12/23 08:15:34;;;;;;;6.50;3.63;;;25.80;99.90;;;;;;5093124;28;20028;-72
2021/12/23 08:18:01;;;;;;;9.20;4.85;;;25.80;99.90;;;;;;5093223;28;20036;-74
2021/12/23 08:20:28;;;;;;;9.82;5.10;;;25.70;99.90;;;;;;5089771;28;20046;-72
2021/12/23 08:22:55;;;;;;;7.82;4.97;;;25.60;99.90;;;;;;5091636;28;20039;-71
2021/12/23 08:25:23;;;;;;;9.13;4.45;;;25.60;99.90;;;;;;5090273;28;20032;-74
2021/12/23 08:27:51;;;;;;;8.63;4.57;;;25.50;99.90;;;;;;5089941;28;20115;-73
2021/12/23 08:30:19;;;;;;;10.68;4.47;;;25.50;99.90;;;;;;5092343;28;20234;-73
2021/12/23 08:32:48;;;;;;;9.10;4.82;;;25.50;99.90;;;;;;5076630;28;20111;-73
2021/12/23 08:35:17;;;;;;;9.00;4.43;;;25.40;99.90;;;;;;5091556;28;20049;-74
2021/12/23 08:37:46;;;;;;;10.07;4.72;;;25.40;99.90;;;;;;5093037;28;20074;-73
2021/12/23 08:40:22;;;;;;;8.07;5.10;;;25.30;99.90;;;;;;5096072;28;20300;-70
2021/12/23 08:42:51;;;;;;;8.90;4.53;;;25.20;99.90;;;;;;5093135;28;20035;-75
2021/12/23 08:45:20;;;;;;;9.85;5.53;;;25.10;99.90;;;;;;5081312;28;20131;-72
2021/12/23 08:47:47;;;;;;;8.90;4.78;;;25.10;99.90;;;;;;5093753;28;20027;-73
2021/12/23 08:50:16;;;;;;;8.52;5.97;;;25.20;99.90;;;;;;5093680;28;20016;-73
2021/12/23 08:52:43;;;;;;;8.38;4.95;;;25.10;99.90;;;;;;5094529;28;20078;-74
2021/12/23 08:55:11;;;;;;;9.00;4.95;;;25.10;99.90;;;;;;5095915;27;20074;-74
2021/12/23 08:57:39;;;;;;;8.88;4.68;;;25.00;99.90;;;;;;5094663;28;20509;-73
2021/12/23 09:00:09;;;;;;;9.30;4.80;;;24.90;99.90;;;;;;5095948;28;20400;-72
2021/12/23 09:02:36;;;;;;;9.80;5.43;;;24.90;99.90;;;;;;5095275;28;20061;-74
2021/12/23 09:05:04;;;;;;;10.32;7.95;;;24.90;99.90;;;;;;5096818;28;20459;-72
2021/12/23 09:07:32;;;;;;;15.00;7.35;;;24.80;99.90;;;;;;5094507;28;20069;-73
2021/12/23 09:09:59;;;;;;;11.50;7.55;;;24.70;99.90;;;;;;5095811;28;20050;-69
2021/12/23 09:12:26;;;;;;;11.95;7.82;;;24.60;99.90;;;;;;5084924;28;20168;-69
2021/12/23 09:14:54;;;;;;;12.35;6.93;;;24.50;99.90;;;;;;5094576;28;20066;-70
2021/12/23 09:17:21;;;;;;;10.73;5.97;;;24.40;99.90;;;;;;5094052;28;20028;-73
2021/12/23 09:19:49;;;;;;;12.02;6.95;;;24.30;99.90;;;;;;5095793;28;20028;-71
2021/12/23 09:22:16;;;;;;;11.85;7.38;;;24.30;99.90;;;;;;5103189;28;20027;-72
2021/12/23 09:24:46;;;;;;;11.25;6.28;;;24.20;99.90;;;;;;5102757;28;20034;-74
2021/12/23 09:27:24;;;;;;;11.75;8.02;;;24.20;99.90;;;;;;5083371;28;20024;-69
2021/12/23 09:32:52;;;;;;;14.15;8.57;;;24.00;99.90;;;;;;5105032;28;20031;-72
2021/12/23 09:35:20;;;;;;;10.98;6.85;;;23.90;99.90;;;;;;5106606;28;20753;-72
2021/12/23 09:37:48;;;;;;;10.80;6.45;;;23.90;99.90;;;;;;5107336;28;20054;-72
2021/12/23 09:40:16;;;;;;;11.75;6.10;;;23.90;99.90;;;;;;5085216;28;20031;-74
2021/12/23 09:42:46;;;;;;;11.30;5.63;;;23.90;99.90;;;;;;5107479;28;20027;-71
2021/12/23 09:45:17;;;;;;;13.13;7.43;;;23.90;99.90;;;;;;5105053;28;20051;-72
2021/12/23 09:47:49;;;;;;;11.25;6.43;;;23.80;99.90;;;;;;5098992;28;20118;-74
2021/12/23 09:50:20;;;;;;;11.27;6.28;;;23.70;99.90;;;;;;5103616;28;20052;-71
2021/12/23 09:52:53;;;;;;;8.40;6.57;;;23.60;99.90;;;;;;5105213;28;20642;-70
2021/12/23 09:55:24;;;;;;;14.05;6.28;;;23.60;99.90;;;;;;5104942;28;20031;-69
2021/12/23 09:57:54;;;;;;;10.55;6.70;;;23.50;99.90;;;;;;5102094;28;20035;-71
2021/12/23 10:00:25;;;;;;;10.68;5.78;;;23.60;99.90;;;;;;5108678;27;20019;-72
2021/12/23 10:02:53;;;;;;;11.00;6.25;;;23.70;99.90;;;;;;5105808;27;20047;-74
2021/12/23 10:05:27;;;;;;;12.98;6.03;;;23.70;99.90;;;;;;5104368;28;20024;-75
2021/12/23 10:07:55;;;;;;;12.18;6.47;;;23.60;99.90;;;;;;5104515;28;20031;-70
2021/12/23 10:33:08;;;;;;;11.95;5.70;;;23.10;99.90;;;;;;5102520;28;20667;-73
2021/12/23 10:38:45;;;;;;;9.18;5.43;;;22.90;99.90;;;;;;5104098;28;20046;-73
2021/12/23 10:41:24;;;;;;;12.60;6.38;;;23.00;99.90;;;;;;5104652;28;20036;-69
2021/12/23 10:44:02;;;;;;;11.82;6.70;;;22.90;99.90;;;;;;5085708;28;20089;-73
2021/12/23 10:46:36;;;;;;;14.18;6.43;;;22.90;99.90;;;;;;5085907;28;20043;-73
2021/12/23 10:52:01;;;;;;;14.30;6.10;;;22.90;99.90;;;;;;5101472;28;20084;-68
2021/12/23 11:00:33;;;;;;;11.43;6.93;;;23.10;99.90;;;;;;5099841;28;20038;-68
2021/12/23 11:03:14;;;;;;;12.75;6.78;;;23.10;99.90;;;;;;5101221;28;20414;-73
2021/12/23 11:05:55;;;;;;;11.70;5.85;;;23.10;99.90;;;;;;5084666;28;20027;-69
2021/12/23 11:37:38;;;;;;;13.40;9.35;;;23.10;99.90;;;;;;5104461;28;20030;-69
2021/12/23 11:40:06;;;;;;;19.73;12.07;;;23.10;99.90;;;;;;5097049;28;20044;-73
2021/12/23 11:42:59;;;;;;;12.65;8.32;;;23.20;99.90;;;;;;5103182;28;20027;-73
2021/12/23 11:45:21;;;;;;;17.92;8.48;;;23.30;99.90;;;;;;5104853;28;20047;-75
2021/12/23 11:47:49;;;;;;;9.82;6.47;;;23.30;99.90;;;;;;5104248;28;20426;-70
2021/12/23 11:50:22;;;;;;;12.88;8.98;;;23.30;99.90;;;;;;5104678;28;20015;-70
2021/12/23 11:52:49;;;;;;;12.52;7.15;;;23.20;99.90;;;;;;5105261;28;20024;-67
2021/12/23 11:55:17;;;;;;;16.25;6.53;;;23.20;99.90;;;;;;5103400;28;20039;-68
2021/12/23 11:57:44;;;;;;;13.05;7.43;;;23.30;99.90;;;;;;5106173;28;20020;-67
2021/12/23 12:00:20;;;;;;;10.75;7.10;;;23.30;99.90;;;;;;5103674;28;20027;-67
2021/12/23 12:03:00;;;;;;;10.13;8.35;;;23.20;99.90;;;;;;5102919;28;20027;-66
2021/12/23 12:05:27;;;;;;;10.82;7.82;;;23.10;99.90;;;;;;5102832;28;20043;-69
2021/12/23 12:08:12;;;;;;;9.85;7.15;;;23.20;99.90;;;;;;5085015;28;20383;-68
2021/12/23 12:10:41;;;;;;;13.18;8.18;;;23.10;99.90;;;;;;5103567;28;20092;-70
2021/12/23 12:13:12;;;;;;;11.40;7.20;;;23.10;99.90;;;;;;5106534;28;20029;-69
2021/12/23 12:15:39;;;;;;;13.02;7.50;;;23.10;99.90;;;;;;5104992;28;20399;-68
2021/12/23 12:18:26;;;;;;;11.82;7.50;;;23.10;99.90;;;;;;5107520;28;20024;-71
2021/12/23 12:20:59;;;;;;;12.60;7.53;;;23.10;99.90;;;;;;5105209;28;20035;-70
2021/12/23 12:23:44;;;;;;;11.43;7.45;;;23.10;99.90;;;;;;5106651;28;20564;-68
2021/12/23 12:26:24;;;;;;;14.80;11.23;;;23.00;99.90;;;;;;5106396;28;20032;-71
2021/12/23 12:28:51;;;;;;;11.13;8.52;;;22.90;99.90;;;;;;5106366;28;20609;-68
2021/12/23 12:31:21;;;;;;;14.85;10.30;;;22.80;99.90;;;;;;5107474;28;20441;-71
2021/12/23 12:33:59;;;;;;;13.98;9.73;;;22.80;99.90;;;;;;5106801;28;20441;-68
2021/12/23 12:36:27;;;;;;;14.48;8.35;;;22.70;99.90;;;;;;5106129;28;20024;-67
2021/12/23 12:38:58;;;;;;;10.68;7.88;;;22.70;99.90;;;;;;5106991;28;20398;-71
2021/12/23 12:41:25;;;;;;;9.32;6.90;;;22.70;99.90;;;;;;5106778;28;20031;-70
2021/12/23 12:44:01;;;;;;;11.63;6.85;;;22.70;99.90;;;;;;5107795;28;20027;-69
2021/12/23 12:46:38;;;;;;;11.82;7.35;;;22.70;99.90;;;;;;5105962;28;20104;-67
2021/12/23 12:49:22;;;;;;;11.95;7.15;;;22.70;99.90;;;;;;5105043;28;20050;-69
2021/12/23 12:51:51;;;;;;;11.25;7.22;;;22.70;99.90;;;;;;5088129;28;20027;-70
2021/12/23 12:54:31;;;;;;;15.35;7.75;;;22.80;99.90;;;;;;5086505;28;20023;-67
2021/12/23 12:57:06;;;;;;;9.00;7.32;;;22.90;99.90;;;;;;5104685;28;20357;-69
2021/12/23 12:59:42;;;;;;;11.70;7.53;;;22.90;99.90;;;;;;5087331;28;20528;-71
2021/12/23 13:02:21;;;;;;;12.90;8.05;;;22.90;99.90;;;;;;5088758;28;20030;-68
2021/12/23 13:04:57;;;;;;;13.90;7.95;;;22.80;99.90;;;;;;5087370;28;20024;-70
2021/12/23 13:07:34;;;;;;;11.63;7.65;;;22.70;99.90;;;;;;5106710;28;20039;-68
2021/12/23 13:10:07;;;;;;;11.15;7.22;;;22.70;99.90;;;;;;5106701;28;20115;-70
2021/12/23 13:12:44;;;;;;;11.38;8.68;;;22.70;99.90;;;;;;5106644;28;20035;-71
2021/12/23 13:15:19;;;;;;;13.27;8.90;;;22.70;99.90;;;;;;5106010;28;20345;-70
2021/12/23 13:17:48;;;;;;;12.63;9.98;;;22.60;99.90;;;;;;5087043;28;20405;-70
2021/12/23 13:20:16;;;;;;;10.80;7.35;;;22.60;99.90;;;;;;5105219;28;20087;-70
2021/12/23 13:22:45;;;;;;;12.93;7.65;;;22.70;99.90;;;;;;5106185;28;20023;-70
2021/12/23 13:25:13;;;;;;;10.40;7.20;;;22.70;99.90;;;;;;5106597;28;20024;-68
2021/12/23 13:27:43;;;;;;;12.98;7.70;;;22.70;99.90;;;;;;5106303;28;20031;-69
2021/12/23 13:30:12;;;;;;;10.38;7.40;;;22.70;99.90;;;;;;5106490;28;20104;-67
2021/12/23 13:32:39;;;;;;;11.85;6.95;;;22.70;99.90;;;;;;5086827;28;20041;-71
2021/12/23 13:35:15;;;;;;;13.45;7.47;;;22.70;99.90;;;;;;5106545;28;20019;-69
2021/12/23 13:37:46;;;;;;;13.00;8.95;;;22.70;99.90;;;;;;5104150;28;20032;-69
2021/12/23 13:40:34;;;;;;;11.10;7.50;;;22.80;99.90;;;;;;5106351;28;20437;-69
2021/12/23 13:43:01;;;;;;;10.88;7.55;;;22.80;99.90;;;;;;5085749;28;20458;-65
2021/12/23 13:45:30;;;;;;;13.90;7.53;;;22.70;99.90;;;;;;5106635;28;20048;-68
2021/12/23 13:47:59;;;;;;;11.43;6.53;;;22.70;99.90;;;;;;5103562;28;20098;-65
2021/12/23 13:50:28;;;;;;;12.15;6.32;;;22.70;99.90;;;;;;5106117;28;20380;-68
2021/12/23 13:52:55;;;;;;;16.17;7.13;;;22.70;99.90;;;;;;5106158;28;20070;-70
2021/12/23 13:55:28;;;;;;;12.18;6.57;;;22.70;99.90;;;;;;5087984;28;20023;-66
2021/12/23 13:57:59;;;;;;;12.88;6.85;;;22.70;99.90;;;;;;5105668;28;20038;-70
2021/12/23 14:00:33;;;;;;;12.50;6.35;;;22.70;99.90;;;;;;5103474;28;20020;-66
2021/12/23 14:03:08;;;;;;;13.23;6.35;;;22.70;99.90;;;;;;5103549;28;20023;-66
2021/12/23 14:05:40;;;;;;;11.73;7.03;;;22.70;99.90;;;;;;5106093;28;20483;-68
2021/12/23 14:08:09;;;;;;;15.75;8.40;;;22.60;99.90;;;;;;5105462;28;20027;-70
2021/12/23 14:10:40;;;;;;;11.75;6.35;;;22.70;99.90;;;;;;5106184;28;20031;-70